Startpagina
METAR-TAF:

METAR-TAF

Vliegvelden :

Cannes, Frankrijk

breedte: 43-33N, lengte: 006-57E, hoogte: 3 m

Actueel weer

Dit bericht is 19 minuten geleden gemaakt, om 10:30 UTC
Wind 7 kt uit het zuiden, variërend tussen het zuidoosten en het zuidzuidwesten
Temperatuur 28°C
Vochtigheid 66%
Druk 1015 hPa
Zicht 10 km of meer
geen wolken onder 1500 m en geen cumulonimbus

METAR: LFMD 181030Z AUTO 18007KT 130V200 CAVOK 28/21 Q1015 NOSIG

Tijdstip: 12:49 (10:49 UTC)

Verwachting

Dit bericht is 2 uur en het 49 minuten geleden gemaakt, om 08:00 UTC
Verwachting geldig van 18 om 09 UTC tot 19 om 09 UTC
Wind 2 kt uit variabele richting
Zicht 10 km of meer
geen wolken onder 1500 m en geen cumulonimbus
Wijzigt naar
van 18 om 09 UTC tot 18 om 10 UTC
Wind 10 kt uit het oosten
Wijzigt naar
van 18 om 19 UTC tot 18 om 21 UTC
Wind 3 kt uit variabele richting
Tijdelijke
van 19 om 00 UTC tot 19 om 09 UTC
Gebroken wolken op 1000 ft

TAF: LFMD 180800Z 1809/1909 VRB02KT CAVOK BECMG 1809/1810 09010KT BECMG 1819/1821 VRB03KT TEMPO 1900/1909 BKN010

Waarnemingen en weersverwachtingen van meer dan 4000 vliegvelden (METAR en TAF).

De beschikbare stations zijn de gele en rode punten op de kaart.

Ga met uw muis naar het station om de naam te zien.

Klik dan om waarnemingen en weersverwachtingen te zien.

kaart wijzigen: klik op de groene knoppen met een zwart kruis om in te zoomen, op de groene knop met een streepje om uit te zoomen of op de groene pijlen voor aangrenzende kaarten.


METAR-TAF: